Pipersville, Pennsylvania
Current Conditions -  °F | °C
As of 1:54 PM on Tuesday 21 Oct 2014 (Local Time) from KDYL Reporting Station
Few Clouds Few Clouds  
Wind Chill: 64°   Ceiling: Unl
Heat Index: 64°   Visibility: 10mi
Dew Point: 50°   Wind: 3mph
Humidity: 60%   Direction: 150°SSE
Pressure: 29.81"   Gusts: NA
Location:  40.38°N, 75.14°W
Report Text: KDYL 211754Z AUTO 15003KT 10SM FEW041 18/10 A2981 RMK AO2 SLP096 T01780100 10189 20089 58018
Loading
Personal Weather Stations






























Interactive Weather Map
Tropical Storm Tracking
New forecast layout! Learn more

10-Day Weather Forecast

Advertisements
Track Severe Weather on mobile